sensor_id;sensor_type;location;lat;lon;timestamp;P1;durP1;ratioP1;P2;durP2;ratioP2
39294;SDS011;52361;52.100;5.248;2023-06-22T00:01:38;6.3;;;3.9;;
39294;SDS011;52361;52.100;5.248;2023-06-22T00:03:14;9.81;;;5.4;;
39294;SDS011;52361;52.100;5.248;2023-06-22T00:04:51;5.2;;;3.8;;
39294;SDS011;52361;52.100;5.248;2023-06-22T00:08:03;4.41;;;3.2;;
39294;SDS011;52361;52.100;5.248;2023-06-22T00:09:40;6.5;;;3.5;;
39294;SDS011;52361;52.100;5.248;2023-06-22T00:11:16;4.61;;;3.2;;
39294;SDS011;52361;52.100;5.248;2023-06-22T00:12:52;5.0;;;3.3;;
39294;SDS011;52361;52.100;5.248;2023-06-22T00:16:05;2.8;;;2.5;;
39294;SDS011;52361;52.100;5.248;2023-06-22T00:17:41;8.5;;;3.4;;
39294;SDS011;52361;52.100;5.248;2023-06-22T00:19:17;8.1;;;3.5;;
39294;SDS011;52361;52.100;5.248;2023-06-22T00:24:06;5.3;;;3.0;;
39294;SDS011;52361;52.100;5.248;2023-06-22T00:25:43;3.4;;;2.6;;
39294;SDS011;52361;52.100;5.248;2023-06-22T00:28:55;6.4;;;3.4;;
39294;SDS011;52361;52.100;5.248;2023-06-22T00:30:31;8.1;;;3.8;;
39294;SDS011;52361;52.100;5.248;2023-06-22T00:32:08;3.7;;;2.7;;
39294;SDS011;52361;52.100;5.248;2023-06-22T00:33:44;3.6;;;2.7;;
39294;SDS011;52361;52.100;5.248;2023-06-22T00:36:57;4.61;;;3.1;;
39294;SDS011;52361;52.100;5.248;2023-06-22T00:38:33;5.11;;;3.4;;
39294;SDS011;52361;52.100;5.248;2023-06-22T00:40:09;4.61;;;2.8;;
39294;SDS011;52361;52.100;5.248;2023-06-22T00:43:23;4.2;;;2.9;;
39294;SDS011;52361;52.100;5.248;2023-06-22T00:44:59;5.2;;;3.3;;
39294;SDS011;52361;52.100;5.248;2023-06-22T00:46:35;6.9;;;3.5;;
39294;SDS011;52361;52.100;5.248;2023-06-22T00:49:49;6.2;;;3.2;;
39294;SDS011;52361;52.100;5.248;2023-06-22T00:51:26;4.2;;;3.2;;
39294;SDS011;52361;52.100;5.248;2023-06-22T00:53:04;5.3;;;3.2;;
39294;SDS011;52361;52.100;5.248;2023-06-22T00:57:56;11.1;;;3.6;;
39294;SDS011;52361;52.100;5.248;2023-06-22T00:59:32;4.7;;;3.3;;
39294;SDS011;52361;52.100;5.248;2023-06-22T01:01:08;5.0;;;3.2;;
39294;SDS011;52361;52.100;5.248;2023-06-22T01:04:24;6.7;;;3.2;;
39294;SDS011;52361;52.100;5.248;2023-06-22T01:06:10;5.6;;;3.8;;
39294;SDS011;52361;52.100;5.248;2023-06-22T01:07:58;4.61;;;2.7;;
39294;SDS011;52361;52.100;5.248;2023-06-22T01:09:43;4.61;;;3.5;;
39294;SDS011;52361;52.100;5.248;2023-06-22T01:11:28;6.1;;;3.6;;
39294;SDS011;52361;52.100;5.248;2023-06-22T01:15:02;4.61;;;2.9;;
39294;SDS011;52361;52.100;5.248;2023-06-22T01:16:44;6.2;;;3.2;;
39294;SDS011;52361;52.100;5.248;2023-06-22T01:18:23;6.0;;;3.0;;
39294;SDS011;52361;52.100;5.248;2023-06-22T01:20:05;4.41;;;3.0;;
39294;SDS011;52361;52.100;5.248;2023-06-22T01:23:26;6.5;;;3.2;;
39294;SDS011;52361;52.100;5.248;2023-06-22T01:25:10;6.7;;;3.1;;
39294;SDS011;52361;52.100;5.248;2023-06-22T01:26:52;5.2;;;3.0;;
39294;SDS011;52361;52.100;5.248;2023-06-22T01:28:43;6.2;;;3.2;;
39294;SDS011;52361;52.100;5.248;2023-06-22T01:30:21;7.0;;;3.3;;
39294;SDS011;52361;52.100;5.248;2023-06-22T01:33:41;6.0;;;3.3;;
39294;SDS011;52361;52.100;5.248;2023-06-22T01:35:19;6.1;;;3.8;;
39294;SDS011;52361;52.100;5.248;2023-06-22T01:36:57;4.1;;;3.1;;
39294;SDS011;52361;52.100;5.248;2023-06-22T01:38:35;5.9;;;3.8;;
39294;SDS011;52361;52.100;5.248;2023-06-22T01:41:51;3.9;;;3.2;;
39294;SDS011;52361;52.100;5.248;2023-06-22T01:43:29;6.8;;;3.3;;
39294;SDS011;52361;52.100;5.248;2023-06-22T01:45:06;7.0;;;3.6;;
39294;SDS011;52361;52.100;5.248;2023-06-22T01:48:20;4.5;;;3.2;;
39294;SDS011;52361;52.100;5.248;2023-06-22T01:49:57;7.6;;;3.9;;
39294;SDS011;52361;52.100;5.248;2023-06-22T01:51:34;6.2;;;3.6;;
39294;SDS011;52361;52.100;5.248;2023-06-22T01:53:10;5.4;;;3.4;;
39294;SDS011;52361;52.100;5.248;2023-06-22T01:56:23;6.4;;;3.4;;
39294;SDS011;52361;52.100;5.248;2023-06-22T01:58:01;4.91;;;3.8;;
39294;SDS011;52361;52.100;5.248;2023-06-22T01:59:39;6.7;;;3.8;;
39294;SDS011;52361;52.100;5.248;2023-06-22T02:03:08;5.3;;;3.6;;
39294;SDS011;52361;52.100;5.248;2023-06-22T02:04:51;4.8;;;3.5;;
39294;SDS011;52361;52.100;5.248;2023-06-22T02:06:34;5.8;;;3.3;;
39294;SDS011;52361;52.100;5.248;2023-06-22T02:08:16;8.31;;;3.8;;
39294;SDS011;52361;52.100;5.248;2023-06-22T02:09:55;6.4;;;3.5;;
39294;SDS011;52361;52.100;5.248;2023-06-22T02:13:13;5.9;;;3.8;;
39294;SDS011;52361;52.100;5.248;2023-06-22T02:14:51;5.5;;;3.5;;
39294;SDS011;52361;52.100;5.248;2023-06-22T02:16:28;7.6;;;4.91;;
39294;SDS011;52361;52.100;5.248;2023-06-22T02:19:44;8.31;;;4.0;;
39294;SDS011;52361;52.100;5.248;2023-06-22T02:21:20;6.2;;;4.1;;
39294;SDS011;52361;52.100;5.248;2023-06-22T02:22:57;9.21;;;4.2;;
39294;SDS011;52361;52.100;5.248;2023-06-22T02:24:33;5.9;;;3.6;;
39294;SDS011;52361;52.100;5.248;2023-06-22T02:27:45;8.6;;;4.2;;
39294;SDS011;52361;52.100;5.248;2023-06-22T02:29:22;8.31;;;4.5;;
39294;SDS011;52361;52.100;5.248;2023-06-22T02:30:58;8.31;;;4.41;;
39294;SDS011;52361;52.100;5.248;2023-06-22T02:34:11;8.4;;;4.3;;
39294;SDS011;52361;52.100;5.248;2023-06-22T02:35:47;6.5;;;4.0;;
39294;SDS011;52361;52.100;5.248;2023-06-22T02:37:24;9.0;;;4.91;;
39294;SDS011;52361;52.100;5.248;2023-06-22T02:40:36;9.31;;;5.0;;
39294;SDS011;52361;52.100;5.248;2023-06-22T02:42:12;7.1;;;4.2;;
39294;SDS011;52361;52.100;5.248;2023-06-22T02:43:48;8.81;;;4.91;;
39294;SDS011;52361;52.100;5.248;2023-06-22T02:47:01;8.1;;;4.3;;
39294;SDS011;52361;52.100;5.248;2023-06-22T02:48:38;8.5;;;4.41;;
39294;SDS011;52361;52.100;5.248;2023-06-22T02:50:15;7.6;;;4.41;;
39294;SDS011;52361;52.100;5.248;2023-06-22T02:51:51;6.2;;;3.8;;
39294;SDS011;52361;52.100;5.248;2023-06-22T02:55:04;6.4;;;4.2;;
39294;SDS011;52361;52.100;5.248;2023-06-22T02:56:42;6.4;;;4.2;;
39294;SDS011;52361;52.100;5.248;2023-06-22T02:58:18;7.8;;;4.61;;
39294;SDS011;52361;52.100;5.248;2023-06-22T03:01:30;6.4;;;4.3;;
39294;SDS011;52361;52.100;5.248;2023-06-22T03:03:06;8.0;;;4.2;;
39294;SDS011;52361;52.100;5.248;2023-06-22T03:04:43;8.1;;;3.8;;
39294;SDS011;52361;52.100;5.248;2023-06-22T03:07:56;6.6;;;4.1;;
39294;SDS011;52361;52.100;5.248;2023-06-22T03:09:32;7.0;;;4.3;;
39294;SDS011;52361;52.100;5.248;2023-06-22T03:11:08;5.11;;;3.8;;
39294;SDS011;52361;52.100;5.248;2023-06-22T03:12:46;10.21;;;5.2;;
39294;SDS011;52361;52.100;5.248;2023-06-22T03:15:59;7.7;;;4.0;;
39294;SDS011;52361;52.100;5.248;2023-06-22T03:17:35;7.5;;;3.9;;
39294;SDS011;52361;52.100;5.248;2023-06-22T03:19:12;7.5;;;4.2;;
39294;SDS011;52361;52.100;5.248;2023-06-22T03:22:25;11.2;;;4.8;;
39294;SDS011;52361;52.100;5.248;2023-06-22T03:24:01;6.7;;;4.5;;
39294;SDS011;52361;52.100;5.248;2023-06-22T03:25:37;7.6;;;4.5;;
39294;SDS011;52361;52.100;5.248;2023-06-22T03:28:49;13.6;;;5.4;;
39294;SDS011;52361;52.100;5.248;2023-06-22T03:30:26;7.6;;;4.2;;
39294;SDS011;52361;52.100;5.248;2023-06-22T03:32:02;10.3;;;5.2;;
39294;SDS011;52361;52.100;5.248;2023-06-22T03:33:38;8.1;;;4.8;;
39294;SDS011;52361;52.100;5.248;2023-06-22T03:36:50;8.4;;;5.11;;
39294;SDS011;52361;52.100;5.248;2023-06-22T03:38:26;7.7;;;4.8;;
39294;SDS011;52361;52.100;5.248;2023-06-22T03:40:03;7.0;;;4.7;;
39294;SDS011;52361;52.100;5.248;2023-06-22T03:43:16;11.7;;;5.5;;
39294;SDS011;52361;52.100;5.248;2023-06-22T03:44:52;9.31;;;5.5;;
39294;SDS011;52361;52.100;5.248;2023-06-22T03:46:28;9.81;;;5.8;;
39294;SDS011;52361;52.100;5.248;2023-06-22T03:49:41;9.21;;;5.3;;
39294;SDS011;52361;52.100;5.248;2023-06-22T03:51:17;11.1;;;6.1;;
39294;SDS011;52361;52.100;5.248;2023-06-22T03:52:53;10.21;;;5.6;;
39294;SDS011;52361;52.100;5.248;2023-06-22T03:54:29;10.9;;;6.2;;
39294;SDS011;52361;52.100;5.248;2023-06-22T03:57:42;12.3;;;6.7;;
39294;SDS011;52361;52.100;5.248;2023-06-22T03:59:19;13.7;;;6.7;;
39294;SDS011;52361;52.100;5.248;2023-06-22T04:00:55;10.5;;;6.4;;
39294;SDS011;52361;52.100;5.248;2023-06-22T04:04:07;15.0;;;6.7;;
39294;SDS011;52361;52.100;5.248;2023-06-22T04:05:43;14.1;;;6.4;;
39294;SDS011;52361;52.100;5.248;2023-06-22T04:07:20;12.3;;;7.6;;
39294;SDS011;52361;52.100;5.248;2023-06-22T04:10:33;10.9;;;6.5;;
39294;SDS011;52361;52.100;5.248;2023-06-22T04:12:09;11.7;;;6.3;;
39294;SDS011;52361;52.100;5.248;2023-06-22T04:13:45;11.1;;;6.6;;
39294;SDS011;52361;52.100;5.248;2023-06-22T04:16:58;10.7;;;6.5;;
39294;SDS011;52361;52.100;5.248;2023-06-22T04:18:33;10.5;;;6.4;;
39294;SDS011;52361;52.100;5.248;2023-06-22T04:20:10;11.6;;;6.5;;
39294;SDS011;52361;52.100;5.248;2023-06-22T04:21:46;9.6;;;5.7;;
39294;SDS011;52361;52.100;5.248;2023-06-22T04:24:58;10.1;;;6.4;;
39294;SDS011;52361;52.100;5.248;2023-06-22T04:26:34;13.1;;;5.8;;
39294;SDS011;52361;52.100;5.248;2023-06-22T04:28:11;12.3;;;6.5;;
39294;SDS011;52361;52.100;5.248;2023-06-22T04:31:23;12.0;;;7.1;;
39294;SDS011;52361;52.100;5.248;2023-06-22T04:32:59;10.7;;;6.9;;
39294;SDS011;52361;52.100;5.248;2023-06-22T04:34:35;11.6;;;6.8;;
39294;SDS011;52361;52.100;5.248;2023-06-22T04:37:48;12.2;;;6.8;;
39294;SDS011;52361;52.100;5.248;2023-06-22T04:39:24;10.5;;;6.7;;
39294;SDS011;52361;52.100;5.248;2023-06-22T04:41:00;12.2;;;7.3;;
39294;SDS011;52361;52.100;5.248;2023-06-22T04:42:37;11.4;;;7.7;;
39294;SDS011;52361;52.100;5.248;2023-06-22T04:45:53;12.3;;;7.9;;
39294;SDS011;52361;52.100;5.248;2023-06-22T04:47:30;13.6;;;7.3;;
39294;SDS011;52361;52.100;5.248;2023-06-22T04:49:06;10.6;;;6.8;;
39294;SDS011;52361;52.100;5.248;2023-06-22T04:52:19;12.8;;;7.6;;
39294;SDS011;52361;52.100;5.248;2023-06-22T04:53:55;10.9;;;6.8;;
39294;SDS011;52361;52.100;5.248;2023-06-22T04:55:32;12.2;;;6.3;;
39294;SDS011;52361;52.100;5.248;2023-06-22T04:58:44;11.9;;;7.4;;
39294;SDS011;52361;52.100;5.248;2023-06-22T05:00:20;12.1;;;7.3;;
39294;SDS011;52361;52.100;5.248;2023-06-22T05:01:56;12.9;;;7.0;;
39294;SDS011;52361;52.100;5.248;2023-06-22T05:03:33;12.6;;;7.5;;
39294;SDS011;52361;52.100;5.248;2023-06-22T05:06:47;12.2;;;7.1;;
39294;SDS011;52361;52.100;5.248;2023-06-22T05:08:23;12.5;;;7.1;;
39294;SDS011;52361;52.100;5.248;2023-06-22T05:09:59;13.1;;;7.1;;
39294;SDS011;52361;52.100;5.248;2023-06-22T05:13:11;12.8;;;7.6;;
39294;SDS011;52361;52.100;5.248;2023-06-22T05:14:48;11.6;;;6.6;;
39294;SDS011;52361;52.100;5.248;2023-06-22T05:16:24;12.5;;;7.5;;
39294;SDS011;52361;52.100;5.248;2023-06-22T05:19:36;12.7;;;7.3;;
39294;SDS011;52361;52.100;5.248;2023-06-22T05:21:12;12.8;;;7.8;;
39294;SDS011;52361;52.100;5.248;2023-06-22T05:22:48;12.7;;;7.0;;
39294;SDS011;52361;52.100;5.248;2023-06-22T05:26:01;11.8;;;6.8;;
39294;SDS011;52361;52.100;5.248;2023-06-22T05:27:37;14.6;;;7.3;;
39294;SDS011;52361;52.100;5.248;2023-06-22T05:29:13;12.1;;;7.5;;
39294;SDS011;52361;52.100;5.248;2023-06-22T05:30:49;13.2;;;7.8;;
39294;SDS011;52361;52.100;5.248;2023-06-22T05:34:01;13.9;;;6.8;;
39294;SDS011;52361;52.100;5.248;2023-06-22T05:35:38;12.6;;;7.7;;
39294;SDS011;52361;52.100;5.248;2023-06-22T05:37:14;14.1;;;6.9;;
39294;SDS011;52361;52.100;5.248;2023-06-22T05:40:27;13.6;;;8.71;;
39294;SDS011;52361;52.100;5.248;2023-06-22T05:42:04;15.9;;;9.0;;
39294;SDS011;52361;52.100;5.248;2023-06-22T05:43:40;15.1;;;8.1;;
39294;SDS011;52361;52.100;5.248;2023-06-22T05:46:53;13.4;;;8.5;;
39294;SDS011;52361;52.100;5.248;2023-06-22T05:48:29;14.4;;;8.81;;
39294;SDS011;52361;52.100;5.248;2023-06-22T05:50:06;14.9;;;9.5;;
39294;SDS011;52361;52.100;5.248;2023-06-22T05:51:43;15.0;;;8.5;;
39294;SDS011;52361;52.100;5.248;2023-06-22T05:54:56;14.4;;;8.5;;
39294;SDS011;52361;52.100;5.248;2023-06-22T05:56:32;14.9;;;9.0;;
39294;SDS011;52361;52.100;5.248;2023-06-22T05:58:08;15.0;;;8.2;;
39294;SDS011;52361;52.100;5.248;2023-06-22T06:01:20;15.8;;;8.6;;
39294;SDS011;52361;52.100;5.248;2023-06-22T06:02:56;15.1;;;8.5;;
39294;SDS011;52361;52.100;5.248;2023-06-22T06:04:33;16.2;;;9.0;;
39294;SDS011;52361;52.100;5.248;2023-06-22T06:07:45;16.7;;;8.9;;
39294;SDS011;52361;52.100;5.248;2023-06-22T06:09:22;16.9;;;9.71;;
39294;SDS011;52361;52.100;5.248;2023-06-22T06:10:58;16.61;;;9.1;;
39294;SDS011;52361;52.100;5.248;2023-06-22T06:12:35;16.7;;;8.81;;
39294;SDS011;52361;52.100;5.248;2023-06-22T06:15:47;15.0;;;8.81;;
39294;SDS011;52361;52.100;5.248;2023-06-22T06:17:23;15.3;;;9.5;;
39294;SDS011;52361;52.100;5.248;2023-06-22T06:18:59;14.8;;;9.71;;
39294;SDS011;52361;52.100;5.248;2023-06-22T06:22:11;14.0;;;8.71;;
39294;SDS011;52361;52.100;5.248;2023-06-22T06:23:47;16.8;;;9.5;;
39294;SDS011;52361;52.100;5.248;2023-06-22T06:25:24;16.2;;;10.21;;
39294;SDS011;52361;52.100;5.248;2023-06-22T06:28:36;15.8;;;9.71;;
39294;SDS011;52361;52.100;5.248;2023-06-22T06:30:13;15.2;;;9.31;;
39294;SDS011;52361;52.100;5.248;2023-06-22T06:31:50;16.61;;;9.4;;
39294;SDS011;52361;52.100;5.248;2023-06-22T06:35:03;18.11;;;10.21;;
39294;SDS011;52361;52.100;5.248;2023-06-22T06:36:40;15.9;;;9.0;;
39294;SDS011;52361;52.100;5.248;2023-06-22T06:38:16;14.3;;;9.5;;
39294;SDS011;52361;52.100;5.248;2023-06-22T06:39:52;14.1;;;9.21;;
39294;SDS011;52361;52.100;5.248;2023-06-22T06:43:05;17.3;;;10.21;;
39294;SDS011;52361;52.100;5.248;2023-06-22T06:44:41;18.5;;;10.5;;
39294;SDS011;52361;52.100;5.248;2023-06-22T06:46:17;19.61;;;10.9;;
39294;SDS011;52361;52.100;5.248;2023-06-22T06:49:29;18.3;;;10.1;;
39294;SDS011;52361;52.100;5.248;2023-06-22T06:51:05;14.8;;;9.5;;
39294;SDS011;52361;52.100;5.248;2023-06-22T06:52:42;17.91;;;9.71;;
39294;SDS011;52361;52.100;5.248;2023-06-22T06:55:54;14.1;;;9.6;;
39294;SDS011;52361;52.100;5.248;2023-06-22T06:57:30;14.8;;;8.6;;
39294;SDS011;52361;52.100;5.248;2023-06-22T06:59:06;15.6;;;8.9;;
39294;SDS011;52361;52.100;5.248;2023-06-22T07:00:42;17.41;;;9.71;;
39294;SDS011;52361;52.100;5.248;2023-06-22T07:03:55;15.9;;;9.9;;
39294;SDS011;52361;52.100;5.248;2023-06-22T07:05:31;14.4;;;9.6;;
39294;SDS011;52361;52.100;5.248;2023-06-22T07:07:07;15.3;;;9.31;;
39294;SDS011;52361;52.100;5.248;2023-06-22T07:10:19;16.0;;;8.9;;
39294;SDS011;52361;52.100;5.248;2023-06-22T07:11:56;14.9;;;9.5;;
39294;SDS011;52361;52.100;5.248;2023-06-22T07:13:32;14.3;;;8.0;;
39294;SDS011;52361;52.100;5.248;2023-06-22T07:16:45;14.9;;;7.8;;
39294;SDS011;52361;52.100;5.248;2023-06-22T07:18:21;15.4;;;7.3;;
39294;SDS011;52361;52.100;5.248;2023-06-22T07:19:57;12.4;;;7.2;;
39294;SDS011;52361;52.100;5.248;2023-06-22T07:23:10;14.6;;;7.6;;
39294;SDS011;52361;52.100;5.248;2023-06-22T07:24:46;12.2;;;7.6;;
39294;SDS011;52361;52.100;5.248;2023-06-22T07:27:59;11.2;;;6.3;;
39294;SDS011;52361;52.100;5.248;2023-06-22T07:31:14;9.1;;;6.0;;
39294;SDS011;52361;52.100;5.248;2023-06-22T07:32:50;12.7;;;6.5;;
39294;SDS011;52361;52.100;5.248;2023-06-22T07:34:26;9.6;;;6.4;;
39294;SDS011;52361;52.100;5.248;2023-06-22T07:37:39;13.0;;;7.0;;
39294;SDS011;52361;52.100;5.248;2023-06-22T07:39:15;10.6;;;6.1;;
39294;SDS011;52361;52.100;5.248;2023-06-22T07:40:51;11.8;;;6.7;;
39294;SDS011;52361;52.100;5.248;2023-06-22T07:44:04;9.6;;;6.2;;
39294;SDS011;52361;52.100;5.248;2023-06-22T07:45:40;10.8;;;6.3;;
39294;SDS011;52361;52.100;5.248;2023-06-22T07:47:16;13.2;;;7.4;;
39294;SDS011;52361;52.100;5.248;2023-06-22T07:48:52;14.0;;;7.3;;
39294;SDS011;52361;52.100;5.248;2023-06-22T07:52:05;13.4;;;7.6;;
39294;SDS011;52361;52.100;5.248;2023-06-22T07:53:42;10.7;;;6.5;;
39294;SDS011;52361;52.100;5.248;2023-06-22T07:55:19;10.8;;;7.3;;
39294;SDS011;52361;52.100;5.248;2023-06-22T08:00:08;10.6;;;6.1;;
39294;SDS011;52361;52.100;5.248;2023-06-22T08:01:46;11.0;;;6.9;;
39294;SDS011;52361;52.100;5.248;2023-06-22T08:04:58;11.0;;;6.3;;
39294;SDS011;52361;52.100;5.248;2023-06-22T08:06:34;10.8;;;5.8;;
39294;SDS011;52361;52.100;5.248;2023-06-22T08:08:10;9.6;;;6.4;;
39294;SDS011;52361;52.100;5.248;2023-06-22T08:09:47;8.5;;;5.9;;
39294;SDS011;52361;52.100;5.248;2023-06-22T08:13:01;8.1;;;5.3;;
39294;SDS011;52361;52.100;5.248;2023-06-22T08:14:38;8.5;;;5.6;;
39294;SDS011;52361;52.100;5.248;2023-06-22T08:16:14;8.5;;;5.6;;
39294;SDS011;52361;52.100;5.248;2023-06-22T08:19:27;8.31;;;5.2;;
39294;SDS011;52361;52.100;5.248;2023-06-22T08:21:04;8.71;;;5.0;;
39294;SDS011;52361;52.100;5.248;2023-06-22T08:22:40;8.71;;;5.0;;
39294;SDS011;52361;52.100;5.248;2023-06-22T08:25:53;6.7;;;4.91;;
39294;SDS011;52361;52.100;5.248;2023-06-22T08:27:29;9.31;;;5.0;;
39294;SDS011;52361;52.100;5.248;2023-06-22T08:29:05;6.4;;;5.4;;
39294;SDS011;52361;52.100;5.248;2023-06-22T08:30:41;6.4;;;4.7;;
39294;SDS011;52361;52.100;5.248;2023-06-22T08:33:54;7.5;;;5.5;;
39294;SDS011;52361;52.100;5.248;2023-06-22T08:35:30;6.2;;;4.61;;
39294;SDS011;52361;52.100;5.248;2023-06-22T08:37:06;5.9;;;4.41;;
39294;SDS011;52361;52.100;5.248;2023-06-22T08:40:18;6.6;;;4.1;;
39294;SDS011;52361;52.100;5.248;2023-06-22T08:41:56;5.9;;;4.41;;
39294;SDS011;52361;52.100;5.248;2023-06-22T08:43:32;5.9;;;3.7;;
39294;SDS011;52361;52.100;5.248;2023-06-22T08:46:45;5.6;;;3.6;;
39294;SDS011;52361;52.100;5.248;2023-06-22T08:48:21;4.91;;;3.4;;
39294;SDS011;52361;52.100;5.248;2023-06-22T08:49:57;5.4;;;3.8;;
39294;SDS011;52361;52.100;5.248;2023-06-22T08:51:33;5.8;;;4.1;;
39294;SDS011;52361;52.100;5.248;2023-06-22T08:54:46;6.5;;;3.9;;
39294;SDS011;52361;52.100;5.248;2023-06-22T08:56:22;6.5;;;4.3;;
39294;SDS011;52361;52.100;5.248;2023-06-22T08:57:58;5.11;;;3.7;;
39294;SDS011;52361;52.100;5.248;2023-06-22T09:01:10;5.11;;;3.5;;
39294;SDS011;52361;52.100;5.248;2023-06-22T09:02:47;7.5;;;4.61;;
39294;SDS011;52361;52.100;5.248;2023-06-22T09:04:24;5.5;;;3.7;;
39294;SDS011;52361;52.100;5.248;2023-06-22T09:07:36;4.8;;;3.8;;
39294;SDS011;52361;52.100;5.248;2023-06-22T09:09:12;5.11;;;3.4;;
39294;SDS011;52361;52.100;5.248;2023-06-22T09:10:49;4.8;;;3.5;;
39294;SDS011;52361;52.100;5.248;2023-06-22T09:14:02;4.2;;;3.3;;
39294;SDS011;52361;52.100;5.248;2023-06-22T09:15:38;8.0;;;3.5;;
39294;SDS011;52361;52.100;5.248;2023-06-22T09:17:14;3.1;;;2.7;;
39294;SDS011;52361;52.100;5.248;2023-06-22T09:18:50;4.61;;;3.2;;
39294;SDS011;52361;52.100;5.248;2023-06-22T09:22:03;4.3;;;3.4;;
39294;SDS011;52361;52.100;5.248;2023-06-22T09:23:39;4.61;;;3.4;;
39294;SDS011;52361;52.100;5.248;2023-06-22T09:25:15;4.3;;;3.4;;
39294;SDS011;52361;52.100;5.248;2023-06-22T09:28:27;5.6;;;3.7;;
39294;SDS011;52361;52.100;5.248;2023-06-22T09:30:04;4.1;;;2.8;;
39294;SDS011;52361;52.100;5.248;2023-06-22T09:31:40;4.0;;;2.5;;
39294;SDS011;52361;52.100;5.248;2023-06-22T09:34:53;8.2;;;2.5;;
39294;SDS011;52361;52.100;5.248;2023-06-22T09:36:29;5.0;;;2.7;;
39294;SDS011;52361;52.100;5.248;2023-06-22T09:38:05;7.0;;;3.1;;
39294;SDS011;52361;52.100;5.248;2023-06-22T09:39:41;5.4;;;3.1;;
39294;SDS011;52361;52.100;5.248;2023-06-22T09:42:53;3.8;;;2.5;;
39294;SDS011;52361;52.100;5.248;2023-06-22T09:44:30;3.3;;;2.8;;
39294;SDS011;52361;52.100;5.248;2023-06-22T09:46:06;4.41;;;3.1;;
39294;SDS011;52361;52.100;5.248;2023-06-22T09:49:18;3.8;;;2.5;;
39294;SDS011;52361;52.100;5.248;2023-06-22T09:50:54;2.8;;;2.0;;
39294;SDS011;52361;52.100;5.248;2023-06-22T09:52:30;4.61;;;2.9;;
39294;SDS011;52361;52.100;5.248;2023-06-22T09:55:43;4.5;;;3.0;;
39294;SDS011;52361;52.100;5.248;2023-06-22T09:57:19;4.0;;;3.2;;
39294;SDS011;52361;52.100;5.248;2023-06-22T09:58:55;4.5;;;2.7;;
39294;SDS011;52361;52.100;5.248;2023-06-22T10:02:07;5.11;;;3.0;;
39294;SDS011;52361;52.100;5.248;2023-06-22T10:03:44;5.2;;;3.2;;
39294;SDS011;52361;52.100;5.248;2023-06-22T10:05:21;3.4;;;2.5;;
39294;SDS011;52361;52.100;5.248;2023-06-22T10:06:57;3.6;;;2.5;;
39294;SDS011;52361;52.100;5.248;2023-06-22T10:10:09;5.6;;;3.3;;
39294;SDS011;52361;52.100;5.248;2023-06-22T10:11:46;4.1;;;3.1;;
39294;SDS011;52361;52.100;5.248;2023-06-22T10:13:22;4.41;;;3.2;;
39294;SDS011;52361;52.100;5.248;2023-06-22T10:16:35;5.4;;;2.8;;
39294;SDS011;52361;52.100;5.248;2023-06-22T10:18:12;3.7;;;3.0;;
39294;SDS011;52361;52.100;5.248;2023-06-22T10:19:48;3.9;;;3.0;;
39294;SDS011;52361;52.100;5.248;2023-06-22T10:23:00;4.61;;;3.0;;
39294;SDS011;52361;52.100;5.248;2023-06-22T10:24:36;4.41;;;3.4;;
39294;SDS011;52361;52.100;5.248;2023-06-22T10:26:12;4.2;;;3.0;;
39294;SDS011;52361;52.100;5.248;2023-06-22T10:27:49;4.91;;;3.1;;
39294;SDS011;52361;52.100;5.248;2023-06-22T10:31:01;6.1;;;3.2;;
39294;SDS011;52361;52.100;5.248;2023-06-22T10:32:37;4.3;;;3.6;;
39294;SDS011;52361;52.100;5.248;2023-06-22T10:34:14;4.3;;;3.3;;
39294;SDS011;52361;52.100;5.248;2023-06-22T10:37:27;6.6;;;4.2;;
39294;SDS011;52361;52.100;5.248;2023-06-22T10:39:03;5.5;;;4.2;;
39294;SDS011;52361;52.100;5.248;2023-06-22T10:40:39;8.2;;;4.41;;
39294;SDS011;52361;52.100;5.248;2023-06-22T10:43:51;7.1;;;4.3;;
39294;SDS011;52361;52.100;5.248;2023-06-22T10:45:27;6.9;;;4.41;;
39294;SDS011;52361;52.100;5.248;2023-06-22T10:47:04;6.6;;;4.41;;
39294;SDS011;52361;52.100;5.248;2023-06-22T10:50:17;7.2;;;4.61;;
39294;SDS011;52361;52.100;5.248;2023-06-22T10:51:54;5.9;;;4.5;;
39294;SDS011;52361;52.100;5.248;2023-06-22T10:53:30;6.0;;;4.2;;
39294;SDS011;52361;52.100;5.248;2023-06-22T10:55:07;6.2;;;4.2;;
39294;SDS011;52361;52.100;5.248;2023-06-22T10:58:20;5.3;;;4.1;;
39294;SDS011;52361;52.100;5.248;2023-06-22T10:59:57;5.2;;;4.0;;
39294;SDS011;52361;52.100;5.248;2023-06-22T11:01:33;6.1;;;4.5;;
39294;SDS011;52361;52.100;5.248;2023-06-22T11:04:45;7.7;;;4.5;;
39294;SDS011;52361;52.100;5.248;2023-06-22T11:06:21;6.7;;;4.61;;
39294;SDS011;52361;52.100;5.248;2023-06-22T11:07:57;7.4;;;4.7;;
39294;SDS011;52361;52.100;5.248;2023-06-22T11:11:10;7.4;;;4.5;;
39294;SDS011;52361;52.100;5.248;2023-06-22T11:12:46;6.3;;;4.7;;
39294;SDS011;52361;52.100;5.248;2023-06-22T11:14:22;8.81;;;6.0;;
39294;SDS011;52361;52.100;5.248;2023-06-22T11:15:58;11.2;;;5.6;;
39294;SDS011;52361;52.100;5.248;2023-06-22T11:19:12;13.1;;;5.8;;
39294;SDS011;52361;52.100;5.248;2023-06-22T11:20:48;7.6;;;5.4;;
39294;SDS011;52361;52.100;5.248;2023-06-22T11:22:24;8.81;;;5.4;;
39294;SDS011;52361;52.100;5.248;2023-06-22T11:25:36;10.3;;;5.9;;
39294;SDS011;52361;52.100;5.248;2023-06-22T11:27:12;9.1;;;5.3;;
39294;SDS011;52361;52.100;5.248;2023-06-22T11:28:48;10.0;;;5.2;;
39294;SDS011;52361;52.100;5.248;2023-06-22T11:33:37;8.2;;;5.2;;
39294;SDS011;52361;52.100;5.248;2023-06-22T11:35:13;8.4;;;4.8;;
39294;SDS011;52361;52.100;5.248;2023-06-22T11:36:49;6.5;;;4.3;;
39294;SDS011;52361;52.100;5.248;2023-06-22T11:40:02;7.0;;;5.11;;
39294;SDS011;52361;52.100;5.248;2023-06-22T11:41:39;7.0;;;5.11;;
39294;SDS011;52361;52.100;5.248;2023-06-22T11:43:15;7.7;;;4.41;;
39294;SDS011;52361;52.100;5.248;2023-06-22T11:46:27;6.4;;;4.1;;
39294;SDS011;52361;52.100;5.248;2023-06-22T11:48:04;7.4;;;4.7;;
39294;SDS011;52361;52.100;5.248;2023-06-22T11:49:40;10.0;;;4.1;;
39294;SDS011;52361;52.100;5.248;2023-06-22T11:52:53;6.0;;;4.41;;
39294;SDS011;52361;52.100;5.248;2023-06-22T11:54:29;7.2;;;3.8;;
39294;SDS011;52361;52.100;5.248;2023-06-22T11:56:05;8.2;;;4.8;;
39294;SDS011;52361;52.100;5.248;2023-06-22T11:59:30;8.2;;;5.2;;
39294;SDS011;52361;52.100;5.248;2023-06-22T12:01:06;8.2;;;4.1;;
39294;SDS011;52361;52.100;5.248;2023-06-22T12:02:42;7.3;;;4.0;;
39294;SDS011;52361;52.100;5.248;2023-06-22T12:04:18;7.5;;;4.41;;
39294;SDS011;52361;52.100;5.248;2023-06-22T12:07:30;9.9;;;4.7;;
39294;SDS011;52361;52.100;5.248;2023-06-22T12:09:07;8.4;;;5.2;;
39294;SDS011;52361;52.100;5.248;2023-06-22T12:10:44;8.5;;;5.0;;
39294;SDS011;52361;52.100;5.248;2023-06-22T12:13:56;7.5;;;4.7;;
39294;SDS011;52361;52.100;5.248;2023-06-22T12:15:32;6.9;;;5.11;;
39294;SDS011;52361;52.100;5.248;2023-06-22T12:17:08;9.6;;;5.4;;
39294;SDS011;52361;52.100;5.248;2023-06-22T12:18:44;11.3;;;6.3;;
39294;SDS011;52361;52.100;5.248;2023-06-22T12:21:57;9.9;;;5.8;;
39294;SDS011;52361;52.100;5.248;2023-06-22T12:23:33;8.6;;;5.5;;
39294;SDS011;52361;52.100;5.248;2023-06-22T12:25:09;6.5;;;4.8;;
39294;SDS011;52361;52.100;5.248;2023-06-22T12:28:22;8.2;;;5.0;;
39294;SDS011;52361;52.100;5.248;2023-06-22T12:29:59;9.4;;;5.11;;
39294;SDS011;52361;52.100;5.248;2023-06-22T12:31:35;8.9;;;6.1;;
39294;SDS011;52361;52.100;5.248;2023-06-22T12:34:47;8.6;;;6.1;;
39294;SDS011;52361;52.100;5.248;2023-06-22T12:36:23;8.6;;;5.5;;
39294;SDS011;52361;52.100;5.248;2023-06-22T12:37:59;8.5;;;5.11;;
39294;SDS011;52361;52.100;5.248;2023-06-22T12:39:36;6.1;;;4.7;;
39294;SDS011;52361;52.100;5.248;2023-06-22T12:42:48;9.6;;;5.9;;
39294;SDS011;52361;52.100;5.248;2023-06-22T12:44:24;10.5;;;5.5;;
39294;SDS011;52361;52.100;5.248;2023-06-22T12:46:00;7.8;;;5.11;;
39294;SDS011;52361;52.100;5.248;2023-06-22T12:49:13;8.71;;;4.8;;
39294;SDS011;52361;52.100;5.248;2023-06-22T12:50:49;7.8;;;4.7;;
39294;SDS011;52361;52.100;5.248;2023-06-22T12:52:25;7.0;;;4.61;;
39294;SDS011;52361;52.100;5.248;2023-06-22T12:55:37;5.8;;;4.7;;
39294;SDS011;52361;52.100;5.248;2023-06-22T12:57:13;7.6;;;4.7;;
39294;SDS011;52361;52.100;5.248;2023-06-22T12:58:49;8.31;;;5.4;;
39294;SDS011;52361;52.100;5.248;2023-06-22T13:02:02;8.9;;;5.5;;
39294;SDS011;52361;52.100;5.248;2023-06-22T13:03:38;8.4;;;5.6;;